ADDS METAR Data INFO
IDs: Format: Raw Decoded Include TAF

Data at: 1309 UTC 19 Jul 2018

KHEF 191256Z VRB05KT 10SM CLR 23/17 A3011 RMK AO2 SLP205 T02330167 PNO $
KHEF 191156Z 36007KT 10SM CLR 22/16 A3010 RMK AO2 SLP200 6//// 7//// T02170161 10217 20161 53015 PNO $
KHEF 191056Z 00000KT 10SM CLR 18/16 A3008 RMK AO2 SLP194 T01780161 PNO $
KHEF 190956Z AUTO 00000KT 10SM OVC080 17/16 A3006 RMK AO2 SLP189 T01720161 PNO $
KHEF 190856Z AUTO 00000KT 10SM OVC080 17/16 A3005 RMK AO2 SLP185 6//// T01670161 51004 PNO $
KHEF 190756Z AUTO 00000KT 10SM OVC080 17/16 A3005 RMK AO2 SLP184 T01720161 PNO $
KHEF 190656Z AUTO 00000KT 10SM CLR 17/16 A3005 RMK AO2 SLP184 T01670161 PNO $
KHEF 190556Z AUTO 00000KT 10SM CLR 17/16 A3004 RMK AO2 SLP181 6//// T01670161 10267 20167 53013 PNO $
KHEF 190456Z AUTO 00000KT 10SM CLR 17/17 A3003 RMK AO2 SLP176 T01720167 PNO $
KHEF 190356Z AUTO 00000KT 10SM CLR 18/17 A3001 RMK AO2 SLP171 T01780167 403000178 PNO $
KHEF 190256Z AUTO 00000KT 10SM CLR 19/17 A3000 RMK AO2 SLP168 6//// T01940167 51012 PNO $
KHEF 190156Z AUTO 00000KT 4SM HZ CLR 20/17 A3000 RMK AO2 SLP166 T02000167 PNO $
KHEF 190056Z AUTO 30003KT 10SM CLR 23/16 A2998 RMK AO2 SLP159 T02330156 PNO $
KHEF 182356Z AUTO 34008KT 10SM CLR 27/15 A2997 RMK AO2 SLP155 6//// T02670150 10300 20267 53003 PNO $
KHEF 182256Z AUTO 33007KT 10SM SCT070 28/15 A2996 RMK AO2 SLP153 T02830150 PNO $
KHEF 182156Z AUTO 32008KT 290V350 10SM FEW070 29/14 A2995 RMK AO2 SLP150 T02890144 PNO $
KHEF 182056Z AUTO 32009KT 10SM BKN070 29/14 A2996 RMK AO2 SLP152 6//// T02940144 58007 PNO $
KHEF 181956Z AUTO 34011G15KT 10SM FEW070 29/14 A2997 RMK AO2 SLP155 T02890144 PNO $
KHEF 181856Z AUTO 34010G16KT 10SM SCT070 29/14 A2997 RMK AO2 SLP157 T02940144 PNO $
KHEF 181756Z AUTO 32007KT 10SM FEW060 29/16 A2998 RMK AO2 SLP159 6//// T02890156 10289 20222 56006 PNO $
KHEF 181656Z AUTO 31009KT 10SM SCT060 28/15 A2998 RMK AO2 SLP161 T02780150 PNO $
KHEF 181556Z AUTO 01006KT 10SM SCT050 28/16 A2999 RMK AO2 SLP163 T02780161 PNO $
KHEF 181456Z AUTO 35009KT 10SM CLR 27/17 A3000 RMK AO2 SLP166 6//// T02670167 51007 PNO $
KHEF 181356Z AUTO 34008KT 10SM CLR 25/16 A3000 RMK AO2 SLP165 T02500161 PNO $
KHEF 181256Z AUTO 34014KT 10SM CLR 23/16 A2999 RMK AO2 SLP162 T02330156 PNO $
KHEF 181156Z AUTO 34008KT 10SM CLR 22/15 A2998 RMK AO2 SLP158 6//// 7//// T02220150 10222 20189 53018 TSNO PNO $
KHEF 181056Z AUTO 34010KT 10SM CLR 20/14 A2996 RMK AO2 SLP151 T02000144 PNO $
KHEF 180956Z AUTO 34008KT 10SM CLR 19/14 A2994 RMK AO2 SLP145 T01940144 PNO $
KHEF 180856Z AUTO 34007KT 10SM CLR 19/16 A2992 RMK AO2 SLP141 6//// T01890156 50006 PNO $
KHEF 180756Z AUTO 32006KT 10SM CLR 20/16 A2992 RMK AO2 SLP141 T02000161 PNO $
KHEF 180656Z AUTO 32006KT 10SM CLR 21/17 A2991 RMK AO2 SLP138 T02110172 PNO $
KHEF 180556Z AUTO 00000KT 10SM CLR 21/19 A2990 RMK AO2 SLP134 6//// T02060194 10272 20200 51005 PNO $
KHEF 180456Z AUTO 21003KT 10SM CLR 21/20 A2990 RMK AO2 SLP132 T02110200 PNO $
KHEF 180356Z AUTO 32005KT 10SM CLR 21/21 A2990 RMK AO2 SLP132 T02110206 403170211 PNO $
KHEF 180256Z AUTO 36008KT 10SM SCT100 23/21 A2989 RMK AO2 SLP129 6//// T02280211 51015 PNO $
KHEF 180156Z 35011KT 10SM FEW042 SCT055 SCT110 26/21 A2989 RMK AO2 SLP128 T02560211 PNO $